Terminal Aerodrome Forecast
Issued by NWS Sioux Falls, SD

Home | Current Version | Previous Version | Text Only | Print | Product List | Glossary On
Versions: 1 2 3 4 5 6 7 8 9 10 11 12 13
000
FTUS43 KFSD 231733
TAFFSD
TAF
KFSD 231733Z 2318/2418 19013G19KT P6SM SCT035 SCT200
     FM232300 22011KT P6SM FEW045 SCT130
     FM240130 29012KT P6SM SCT200
     FM240300 32007KT P6SM SCT250=

USA.gov is the U.S. government's official web portal to all federal, state and local government web resources and services.